Time;durP1;ratioP1;P1;durP2;ratioP2;P2;SDS_P1;SDS_P2;PMS_P1;PMS_P2;Temp;Humidity;BMP_temperature;BMP_pressure;BME280_temperature;BME280_humidity;BME280_pressure;Samples;Min_cycle;Max_cycle;Signal;HPM_P1;HPM_P2
2022/05/21 00:00:16;;;;;;;;;;;;;;;14.44;66.03;101267.03;5100634;28;19915;-84
2022/05/21 00:02:41;;;;;;;;;;;;;;;14.49;66.75;101270.09;5119146;28;19926;-85
2022/05/21 00:05:07;;;;;;;;;;;;;;;14.48;66.98;101271.09;5119920;27;20308;-84
2022/05/21 00:07:33;;;;;;;;;;;;;;;14.43;67.65;101268.06;5098625;28;20018;-84
2022/05/21 00:10:02;;;;;;;;;;;;;;;14.47;67.24;101265.84;5100229;28;19927;-84
2022/05/21 00:12:27;;;;;;;;;;;;;;;14.41;67.54;101263.84;5094532;28;20014;-85
2022/05/21 00:14:53;;;;;;;;;;;;;;;14.51;67.51;101264.50;5100577;28;20426;-85
2022/05/21 00:17:20;;;;;;;;;;;;;;;14.46;67.69;101256.91;5116137;28;20248;-84
2022/05/21 00:19:45;;;;;;;;;;;;;;;14.46;68.03;101254.19;5123822;27;20033;-85
2022/05/21 00:22:11;;;;;;;;;;;;;;;14.43;67.87;101249.13;5097824;28;19967;-85
2022/05/21 00:24:39;;;;;;;;;;;;;;;14.46;68.09;101245.25;5099809;28;19945;-86
2022/05/21 00:27:07;;;;;;;;;;;;;;;14.43;68.55;101243.72;5115150;28;20398;-86
2022/05/21 00:29:32;;;;;;;;;;;;;;;14.43;68.54;101238.31;5119253;27;19930;-85
2022/05/21 00:31:58;;;;;;;;;;;;;;;14.45;68.54;101236.28;5125333;27;19916;-85
2022/05/21 00:34:24;;;;;;;;;;;;;;;14.48;68.34;101235.94;5108542;28;19912;-86
2022/05/21 00:36:50;;;;;;;;;;;;;;;14.46;68.59;101227.13;5108005;27;19915;-85
2022/05/21 00:39:15;;;;;;;;;;;;;;;14.45;68.39;101220.06;5110554;27;20010;-86
2022/05/21 00:41:41;;;;;;;;;;;;;;;14.50;68.21;101214.13;5119948;27;19951;-85
2022/05/21 00:44:07;;;;;;;;;;;;;;;14.49;67.47;101209.72;5121536;27;19919;-85
2022/05/21 00:46:34;;;;;;;;;;;;;;;14.48;66.82;101218.88;5101772;28;19920;-86
2022/05/21 00:49:07;;;;;;;;;;;;;;;14.47;66.22;101212.63;5091297;27;19961;-86
2022/05/21 00:51:34;;;;;;;;;;;;;;;14.46;65.75;101215.50;5097813;28;19944;-86
2022/05/21 00:54:00;;;;;;;;;;;;;;;14.43;65.60;101221.25;5107701;27;19916;-86
2022/05/21 00:56:27;;;;;;;;;;;;;;;14.40;65.08;101206.22;5124256;28;19923;-86
2022/05/21 01:01:37;;;;;;;;;;;;;;;14.38;64.59;101197.41;5120671;27;19922;-85
2022/05/21 01:04:03;;;;;;;;;;;;;;;14.37;64.49;101195.72;5118301;28;19927;-84
2022/05/21 01:06:28;;;;;;;;;;;;;;;14.37;64.55;101195.72;5120427;27;19919;-86
2022/05/21 01:08:55;;;;;;;;;;;;;;;14.34;64.31;101191.50;5129073;27;20006;-87
2022/05/21 01:11:20;;;;;;;;;;;;;;;14.29;64.34;101184.94;5124998;27;20414;-86
2022/05/21 01:13:47;;;;;;;;;;;;;;;14.26;64.54;101183.41;5117608;27;19976;-86
2022/05/21 01:16:13;;;;;;;;;;;;;;;14.24;64.40;101187.31;5107115;27;19931;-85
2022/05/21 01:18:39;;;;;;;;;;;;;;;14.21;64.58;101176.81;5130086;27;19920;-85
2022/05/21 01:21:04;;;;;;;;;;;;;;;14.17;64.86;101172.78;5123735;27;19923;-85
2022/05/21 01:23:30;;;;;;;;;;;;;;;14.11;64.97;101180.56;5114826;27;19977;-85
2022/05/21 01:25:57;;;;;;;;;;;;;;;14.03;65.18;101177.03;5134636;27;20357;-85
2022/05/21 01:28:24;;;;;;;;;;;;;;;13.97;65.31;101173.13;5132084;27;19930;-84
2022/05/21 01:30:51;;;;;;;;;;;;;;;14.01;65.05;101163.69;5136857;27;19916;-86
2022/05/21 01:33:20;;;;;;;;;;;;;;;13.99;64.91;101164.88;5131359;27;19919;-85
2022/05/21 01:35:46;;;;;;;;;;;;;;;14.01;64.97;101160.13;5111471;27;19916;-86
2022/05/21 01:38:11;;;;;;;;;;;;;;;13.99;65.08;101160.31;5119128;27;19926;-84
2022/05/21 01:40:37;;;;;;;;;;;;;;;13.98;65.53;101157.75;5102648;28;20489;-85
2022/05/21 01:45:48;;;;;;;;;;;;;;;13.99;65.87;101163.00;5124413;27;20294;-85
2022/05/21 01:48:18;;;;;;;;;;;;;;;13.93;66.59;101163.72;5132572;27;20397;-84
2022/05/21 01:50:44;;;;;;;;;;;;;;;13.83;66.91;101160.31;5123662;27;19923;-85
2022/05/21 01:53:10;;;;;;;;;;;;;;;13.73;67.67;101164.03;5098449;27;19916;-86
2022/05/21 01:55:37;;;;;;;;;;;;;;;13.81;67.70;101151.53;5142346;27;19915;-85
2022/05/21 01:58:02;;;;;;;;;;;;;;;13.78;68.35;101143.78;5137707;27;20014;-85
2022/05/21 02:00:28;;;;;;;;;;;;;;;13.79;68.68;101148.16;5105524;28;19974;-85
2022/05/21 02:02:56;;;;;;;;;;;;;;;13.83;68.70;101149.50;5096952;28;19916;-85
2022/05/21 02:05:22;;;;;;;;;;;;;;;13.81;68.85;101151.53;5124901;27;19923;-87
2022/05/21 02:07:48;;;;;;;;;;;;;;;13.72;69.36;101148.00;5141093;27;19907;-85
2022/05/21 02:10:15;;;;;;;;;;;;;;;13.71;69.51;101147.16;5127118;27;19920;-85
2022/05/21 02:12:41;;;;;;;;;;;;;;;13.82;69.21;101148.66;5095134;28;20392;-85
2022/05/21 02:15:07;;;;;;;;;;;;;;;13.68;69.40;101150.19;5105789;27;19924;-85
2022/05/21 02:17:32;;;;;;;;;;;;;;;13.56;69.65;101151.56;5095153;28;19916;-84
2022/05/21 02:20:03;;;;;;;;;;;;;;;13.50;69.67;101144.13;5123311;27;19920;-87
2022/05/21 02:22:32;;;;;;;;;;;;;;;13.55;69.39;101147.16;5093066;28;19950;-86
2022/05/21 02:24:58;;;;;;;;;;;;;;;13.53;69.56;101154.56;5119180;27;19938;-85
2022/05/21 02:27:23;;;;;;;;;;;;;;;13.59;69.38;101147.66;5091964;28;20372;-86
2022/05/21 02:29:48;;;;;;;;;;;;;;;13.51;69.54;101140.41;5115181;27;19920;-84
2022/05/21 02:32:14;;;;;;;;;;;;;;;13.58;69.54;101141.44;5096151;28;19915;-85
2022/05/21 02:34:40;;;;;;;;;;;;;;;13.57;69.19;101141.59;5117193;27;19920;-85
2022/05/21 02:39:52;;;;;;;;;;;;;;;13.69;68.94;101141.06;5117604;27;20268;-84
2022/05/21 02:45:03;;;;;;;;;;;;;;;13.50;69.38;101133.31;5136435;27;19976;-85
2022/05/21 02:47:29;;;;;;;;;;;;;;;13.42;69.87;101138.72;5085656;28;19920;-85
2022/05/21 02:49:56;;;;;;;;;;;;;;;13.45;69.59;101138.38;5120721;27;19985;-86
2022/05/21 02:52:22;;;;;;;;;;;;;;;13.49;69.58;101139.75;5111805;27;19922;-87
2022/05/21 02:54:47;;;;;;;;;;;;;;;13.52;69.62;101142.09;5096479;28;19920;-85
2022/05/21 02:57:13;;;;;;;;;;;;;;;13.58;69.48;101136.03;5105656;28;19930;-86
2022/05/21 02:59:39;;;;;;;;;;;;;;;13.54;69.51;101139.22;5123698;27;19931;-85
2022/05/21 03:02:05;;;;;;;;;;;;;;;13.62;69.36;101140.06;5112828;27;19927;-85
2022/05/21 03:04:33;;;;;;;;;;;;;;;13.66;69.10;101138.72;5124647;27;19924;-84
2022/05/21 03:06:58;;;;;;;;;;;;;;;13.72;68.66;101131.81;5104303;28;19904;-86
2022/05/21 03:12:08;;;;;;;;;;;;;;;13.73;68.77;101141.59;5113762;27;19973;-85
2022/05/21 03:14:33;;;;;;;;;;;;;;;13.82;68.72;101135.16;5095567;28;19919;-85
2022/05/21 03:16:59;;;;;;;;;;;;;;;13.88;68.31;101133.63;5106762;27;20362;-84
2022/05/21 03:19:28;;;;;;;;;;;;;;;13.82;68.66;101131.63;5124166;27;19919;-85
2022/05/21 03:21:56;;;;;;;;;;;;;;;13.83;68.59;101139.53;5108940;27;20314;-85
2022/05/21 03:24:21;;;;;;;;;;;;;;;13.93;68.03;101144.78;5130311;27;19923;-85
2022/05/21 03:26:47;;;;;;;;;;;;;;;13.99;68.04;101138.69;5105047;28;20007;-86
2022/05/21 03:29:12;;;;;;;;;;;;;;;14.05;67.88;101143.41;5117239;28;19928;-85
2022/05/21 03:31:41;;;;;;;;;;;;;;;14.11;67.11;101134.59;5109860;28;19978;-84
2022/05/21 03:34:07;;;;;;;;;;;;;;;14.09;67.26;101135.78;5108307;28;19961;-85
2022/05/21 03:36:32;;;;;;;;;;;;;;;14.10;67.19;101129.38;5123703;28;19964;-84
2022/05/21 03:38:59;;;;;;;;;;;;;;;14.27;66.55;101127.47;5130163;28;19923;-85
2022/05/21 03:41:25;;;;;;;;;;;;;;;14.23;66.50;101132.34;5125634;27;19915;-85
2022/05/21 03:43:52;;;;;;;;;;;;;;;14.37;66.21;101125.38;5131375;27;19920;-85
2022/05/21 03:46:19;;;;;;;;;;;;;;;14.33;66.28;101134.91;5126503;27;19915;-85
2022/05/21 03:48:46;;;;;;;;;;;;;;;14.43;65.75;101119.28;5130975;27;20333;-85
2022/05/21 03:51:12;;;;;;;;;;;;;;;14.26;66.50;101125.78;5124881;27;19967;-86
2022/05/21 03:53:37;;;;;;;;;;;;;;;14.38;66.43;101121.69;5097828;27;19985;-84
2022/05/21 03:56:03;;;;;;;;;;;;;;;14.32;66.48;101133.19;5108769;27;19963;-85
2022/05/21 03:58:31;;;;;;;;;;;;;;;14.40;66.39;101127.75;5126992;27;20031;-87
2022/05/21 04:00:56;;;;;;;;;;;;;;;14.53;66.28;101122.63;5126259;27;20057;-85
2022/05/21 04:03:21;;;;;;;;;;;;;;;14.60;65.70;101119.25;5098333;27;20014;-86
2022/05/21 04:05:47;;;;;;;;;;;;;;;14.70;65.58;101123.44;5117305;27;19929;-85
2022/05/21 04:08:13;;;;;;;;;;;;;;;14.79;64.97;101126.94;5127994;27;19976;-86
2022/05/21 04:10:38;;;;;;;;;;;;;;;14.73;65.35;101124.94;5111297;27;19923;-85
2022/05/21 04:13:04;;;;;;;;;;;;;;;14.71;65.20;101129.69;5116726;27;19936;-86
2022/05/21 04:15:32;;;;;;;;;;;;;;;14.78;65.03;101128.81;5105803;27;19919;-84
2022/05/21 04:17:58;;;;;;;;;;;;;;;14.79;64.86;101116.09;5134642;27;19946;-85
2022/05/21 04:20:24;;;;;;;;;;;;;;;14.99;64.39;101125.47;5122257;27;19927;-85
2022/05/21 04:22:50;;;;;;;;;;;;;;;15.06;64.32;101128.31;5134242;27;20657;-85
2022/05/21 04:25:18;;;;;;;;;;;;;;;15.26;64.16;101130.53;5129255;27;19919;-86
2022/05/21 04:27:44;;;;;;;;;;;;;;;15.55;63.44;101122.53;5096926;28;20018;-85
2022/05/21 04:30:10;;;;;;;;;;;;;;;15.63;63.31;101122.44;5121125;27;19999;-86
2022/05/21 04:32:36;;;;;;;;;;;;;;;15.76;62.59;101129.16;5134810;27;19915;-85
2022/05/21 04:35:01;;;;;;;;;;;;;;;15.85;62.32;101124.47;5109852;27;19919;-86
2022/05/21 04:37:27;;;;;;;;;;;;;;;15.72;62.34;101123.25;5093681;28;19924;-86
2022/05/21 04:39:52;;;;;;;;;;;;;;;15.83;62.34;101122.81;5116577;27;19924;-87
2022/05/21 04:42:17;;;;;;;;;;;;;;;15.85;62.03;101121.78;5132159;27;19915;-86
2022/05/21 04:44:43;;;;;;;;;;;;;;;15.83;62.16;101120.09;5127877;27;19934;-86
2022/05/21 04:47:12;;;;;;;;;;;;;;;16.28;60.81;101113.88;5099412;28;20383;-86
2022/05/21 04:49:37;;;;;;;;;;;;;;;16.50;60.92;101118.34;5101734;28;19946;-87
2022/05/21 04:52:05;;;;;;;;;;;;;;;16.61;59.97;101108.88;5113193;27;19983;-86
2022/05/21 04:54:30;;;;;;;;;;;;;;;16.86;59.16;101104.00;5128250;27;19919;-86
2022/05/21 04:56:57;;;;;;;;;;;;;;;17.16;58.37;101106.59;5117029;27;19972;-85
2022/05/21 04:59:22;;;;;;;;;;;;;;;17.55;57.00;101108.03;5139498;27;19903;-87
2022/05/21 05:01:48;;;;;;;;;;;;;;;17.90;55.77;101107.06;5106226;28;19958;-86
2022/05/21 05:04:13;;;;;;;;;;;;;;;18.24;55.12;101107.28;5102989;27;19923;-86
2022/05/21 05:06:41;;;;;;;;;;;;;;;18.47;54.60;101104.25;5111257;27;20006;-87
2022/05/21 05:09:07;;;;;;;;;;;;;;;18.79;53.38;101107.38;5126483;27;19922;-86
2022/05/21 05:11:37;;;;;;;;;;;;;;;19.05;53.30;101104.72;5129150;27;19919;-85
2022/05/21 05:14:03;;;;;;;;;;;;;;;19.33;51.71;101101.00;5122872;27;19923;-85
2022/05/21 05:16:28;;;;;;;;;;;;;;;19.58;50.89;101101.22;5134757;27;19923;-86
2022/05/21 05:18:53;;;;;;;;;;;;;;;19.88;49.99;101100.78;5116111;28;19924;-86
2022/05/21 05:21:19;;;;;;;;;;;;;;;20.09;49.69;101096.97;5109279;28;19916;-87
2022/05/21 05:23:47;;;;;;;;;;;;;;;20.38;49.28;101095.66;5103542;27;19965;-87
2022/05/21 05:26:12;;;;;;;;;;;;;;;20.64;48.71;101092.00;5124520;27;20363;-86
2022/05/21 05:28:38;;;;;;;;;;;;;;;20.99;47.73;101094.34;5113542;27;19915;-85
2022/05/21 05:31:09;;;;;;;;;;;;;;;21.22;47.44;101102.84;5101289;28;19978;-85
2022/05/21 05:33:35;;;;;;;;;;;;;;;21.51;47.27;101095.06;5099722;27;19915;-87
2022/05/21 05:36:00;;;;;;;;;;;;;;;21.71;46.15;101112.16;5107426;27;19920;-87
2022/05/21 05:38:26;;;;;;;;;;;;;;;21.95;45.81;101112.38;5114526;27;19966;-88
2022/05/21 05:40:51;;;;;;;;;;;;;;;22.16;43.79;101108.38;5102095;28;19930;-88
2022/05/21 05:43:17;;;;;;;;;;;;;;;22.44;42.19;101107.88;5096835;27;19931;-87
2022/05/21 05:45:44;;;;;;;;;;;;;;;22.43;41.61;101102.63;5097689;28;19920;-87
2022/05/21 05:48:10;;;;;;;;;;;;;;;22.69;41.05;101102.31;5100907;27;19932;-88
2022/05/21 05:50:35;;;;;;;;;;;;;;;22.98;39.92;101099.78;5133269;27;20313;-87
2022/05/21 05:53:04;;;;;;;;;;;;;;;23.23;38.69;101091.44;5133339;27;19923;-87
2022/05/21 05:55:32;;;;;;;;;;;;;;;23.38;37.74;101097.31;5123758;27;19982;-88
2022/05/21 05:57:58;;;;;;;;;;;;;;;23.60;37.31;101085.81;5116967;27;19919;-87
2022/05/21 06:00:23;;;;;;;;;;;;;;;23.79;36.01;101084.66;5139757;27;19928;-86
2022/05/21 06:03:04;;;;;;;;;;;;;;;23.76;36.00;101079.63;5122152;28;19916;-87
2022/05/21 06:05:32;;;;;;;;;;;;;;;24.02;36.35;101082.94;5123213;27;19989;-87
2022/05/21 06:07:59;;;;;;;;;;;;;;;24.33;36.62;101084.47;5112038;28;20371;-90
2022/05/21 06:10:27;;;;;;;;;;;;;;;24.56;36.60;101086.34;5140287;27;19924;-86
2022/05/21 06:12:52;;;;;;;;;;;;;;;24.79;36.38;101084.59;5098041;28;19927;-86
2022/05/21 06:15:17;;;;;;;;;;;;;;;24.97;36.02;101089.06;5130872;27;19919;-88
2022/05/21 06:17:43;;;;;;;;;;;;;;;24.94;36.16;101087.66;5114379;28;20275;-86
2022/05/21 06:20:11;;;;;;;;;;;;;;;25.24;35.77;101076.41;5098090;27;20384;-85
2022/05/21 06:22:36;;;;;;;;;;;;;;;25.55;35.56;101085.16;5133541;27;19916;-86
2022/05/21 06:25:03;;;;;;;;;;;;;;;25.60;34.93;101076.16;5126062;27;19929;-87
2022/05/21 06:27:28;;;;;;;;;;;;;;;25.61;35.57;101080.56;5112047;28;19915;-86
2022/05/21 06:29:54;;;;;;;;;;;;;;;25.98;35.12;101069.84;5118508;27;19923;-88
2022/05/21 06:32:20;;;;;;;;;;;;;;;26.24;34.78;101073.78;5130558;27;19944;-87
2022/05/21 06:34:46;;;;;;;;;;;;;;;26.58;34.15;101070.94;5101446;28;19920;-87
2022/05/21 06:37:17;;;;;;;;;;;;;;;26.74;33.75;101070.03;5129245;27;20455;-87
2022/05/21 06:39:45;;;;;;;;;;;;;;;26.93;33.50;101064.16;5128218;27;19916;-87
2022/05/21 06:42:12;;;;;;;;;;;;;;;26.95;33.38;101064.75;5114584;27;19930;-89
2022/05/21 06:44:37;;;;;;;;;;;;;;;27.24;32.81;101058.97;5126769;27;19939;-86
2022/05/21 06:47:06;;;;;;;;;;;;;;;27.13;33.01;101061.56;5094281;28;20333;-86
2022/05/21 06:49:36;;;;;;;;;;;;;;;27.26;33.00;101060.38;5094436;27;19916;-88
2022/05/21 06:52:03;;;;;;;;;;;;;;;27.20;32.62;101052.28;5132862;27;19920;-87
2022/05/21 06:54:28;;;;;;;;;;;;;;;27.40;32.59;101049.72;5126741;27;19916;-88
2022/05/21 06:56:54;;;;;;;;;;;;;;;27.69;32.55;101047.44;5116389;27;19919;-88
2022/05/21 06:59:19;;;;;;;;;;;;;;;27.76;31.82;101048.03;5117095;27;19923;-88
2022/05/21 07:01:48;;;;;;;;;;;;;;;27.97;30.86;101049.00;5110285;28;19927;-86
2022/05/21 07:07:32;;;;;;;;;;;;;;;28.08;30.72;101049.09;5126650;27;19919;-86
2022/05/21 07:09:49;;;;;;;;;;;;;;;28.48;30.21;101036.56;5120499;27;19930;-87
2022/05/21 07:12:20;;;;;;;;;;;;;;;28.68;29.81;101039.38;5112072;28;19920;-84
2022/05/21 07:14:45;;;;;;;;;;;;;;;28.69;29.70;101027.22;5100181;28;19927;-88
2022/05/21 07:17:12;;;;;;;;;;;;;;;28.80;29.47;101031.66;5105728;28;19923;-88
2022/05/21 07:19:37;;;;;;;;;;;;;;;29.13;29.21;101020.38;5095804;28;20259;-87
2022/05/21 07:22:06;;;;;;;;;;;;;;;29.05;28.28;101016.19;5095103;28;19916;-88
2022/05/21 07:24:32;;;;;;;;;;;;;;;28.97;28.49;101019.50;5118032;27;19938;-86
2022/05/21 07:26:59;;;;;;;;;;;;;;;28.96;29.24;101017.81;5118534;28;19969;-86
2022/05/21 07:29:24;;;;;;;;;;;;;;;29.30;28.56;101015.38;5102394;28;19923;-87
2022/05/21 07:31:50;;;;;;;;;;;;;;;29.59;28.58;101012.00;5120963;28;19916;-85
2022/05/21 07:34:16;;;;;;;;;;;;;;;29.81;28.09;101014.50;5122151;28;19951;-86
2022/05/21 07:36:42;;;;;;;;;;;;;;;29.80;27.79;101007.28;5127456;28;20401;-87
2022/05/21 07:39:08;;;;;;;;;;;;;;;29.87;26.96;101007.81;5105149;28;19920;-89
2022/05/21 07:41:34;;;;;;;;;;;;;;;30.22;26.55;101014.34;5131177;28;19922;-87
2022/05/21 07:44:00;;;;;;;;;;;;;;;30.22;26.82;101009.63;5125245;28;19927;-87
2022/05/21 07:46:26;;;;;;;;;;;;;;;30.35;26.16;100991.59;5121443;27;19916;-87
2022/05/21 07:48:51;;;;;;;;;;;;;;;30.90;25.56;101011.78;5113546;28;19997;-88
2022/05/21 07:51:17;;;;;;;;;;;;;;;30.67;25.48;101006.91;5120533;28;19945;-87
2022/05/21 07:53:43;;;;;;;;;;;;;;;31.04;25.11;100997.25;5113233;28;19920;-87
2022/05/21 07:56:11;;;;;;;;;;;;;;;30.79;24.40;101003.78;5119244;28;19923;-88
2022/05/21 07:58:37;;;;;;;;;;;;;;;30.84;25.80;100992.69;5134159;28;20371;-87
2022/05/21 08:01:02;;;;;;;;;;;;;;;30.64;25.79;100988.06;5129165;28;20015;-87
2022/05/21 08:03:29;;;;;;;;;;;;;;;30.06;26.84;100977.53;5113425;27;19955;-89
2022/05/21 08:05:55;;;;;;;;;;;;;;;29.40;27.79;100971.06;5106913;28;19916;-89
2022/05/21 08:08:21;;;;;;;;;;;;;;;28.75;28.58;100976.31;5113466;28;20333;-87
2022/05/21 08:10:46;;;;;;;;;;;;;;;28.51;29.31;100981.53;5095776;28;19981;-86
2022/05/21 08:13:11;;;;;;;;;;;;;;;28.30;29.28;100985.31;5111057;28;19920;-88
2022/05/21 08:15:37;;;;;;;;;;;;;;;28.46;29.09;100980.66;5124106;28;19966;-87
2022/05/21 08:18:04;;;;;;;;;;;;;;;28.80;28.90;100976.31;5110845;28;19987;-87
2022/05/21 08:20:32;;;;;;;;;;;;;;;28.34;29.03;100975.38;5104162;28;19930;-86
2022/05/21 08:28:28;;;;;;;;;;;;;;;30.34;26.84;100978.81;5134254;27;19922;-88
2022/05/21 08:30:56;;;;;;;;;;;;;;;30.71;26.14;100978.28;5105004;27;19915;-87
2022/05/21 08:33:23;;;;;;;;;;;;;;;31.29;25.18;100955.34;5133959;27;19969;-88
2022/05/21 08:35:50;;;;;;;;;;;;;;;30.90;25.84;100970.13;5134376;27;19915;-87
2022/05/21 08:38:16;;;;;;;;;;;;;;;31.52;25.45;100956.53;5138248;27;19912;-89
2022/05/21 08:40:50;;;;;;;;;;;;;;;31.56;25.60;100953.97;5102870;28;19920;-87
2022/05/21 08:43:20;;;;;;;;;;;;;;;32.18;25.11;100968.81;5118167;27;19915;-88
2022/05/21 08:45:50;;;;;;;;;;;;;;;32.61;23.84;100969.91;5124972;27;19919;-88
2022/05/21 08:48:17;;;;;;;;;;;;;;;32.65;23.41;100962.63;5133796;27;19926;-88
2022/05/21 08:50:44;;;;;;;;;;;;;;;32.79;23.66;100969.09;5116150;27;19916;-89
2022/05/21 08:53:11;;;;;;;;;;;;;;;32.44;24.08;100962.09;5123125;27;19915;-86
2022/05/21 08:55:46;;;;;;;;;;;;;;;33.13;24.13;100962.41;5111400;28;19932;-87
2022/05/21 08:58:24;;;;;;;;;;;;;;;34.08;23.34;100954.44;5100853;27;19916;-87
2022/05/21 09:00:50;;;;;;;;;;;;;;;34.85;21.75;100955.50;5126814;27;20355;-87
2022/05/21 09:03:18;;;;;;;;;;;;;;;35.63;21.09;100941.16;5145646;27;19926;-87
2022/05/21 09:05:44;;;;;;;;;;;;;;;36.22;20.79;100943.63;5123736;28;19927;-89
2022/05/21 09:08:30;;;;;;;;;;;;;;;36.98;19.71;100943.94;5101200;27;19916;-88
2022/05/21 09:11:03;;;;;;;;;;;;;;;37.32;19.10;100932.97;5098926;28;19920;-89
2022/05/21 09:13:50;;;;;;;;;;;;;;;38.15;18.47;100931.59;5111425;27;19929;-88
2022/05/21 09:19:00;;;;;;;;;;;;;;;38.78;17.41;100926.78;5117583;27;19926;-88
2022/05/21 09:21:27;;;;;;;;;;;;;;;39.63;17.11;100922.50;5104997;28;19915;-89
2022/05/21 09:23:54;;;;;;;;;;;;;;;40.34;16.50;100916.69;5117065;27;19928;-88
2022/05/21 09:26:21;;;;;;;;;;;;;;;40.78;16.06;100914.75;5101558;28;19946;-86
2022/05/21 09:28:48;;;;;;;;;;;;;;;41.13;15.42;100914.09;5101908;27;19951;-87
2022/05/21 09:31:14;;;;;;;;;;;;;;;41.77;14.95;100906.41;5127701;27;19926;-87
2022/05/21 09:33:43;;;;;;;;;;;;;;;40.36;15.91;100903.06;5110941;27;20030;-89
2022/05/21 09:36:08;;;;;;;;;;;;;;;41.09;15.68;100907.50;5124217;27;19927;-87
2022/05/21 09:38:36;;;;;;;;;;;;;;;41.53;14.97;100910.25;5131455;27;19923;-88
2022/05/21 09:41:09;;;;;;;;;;;;;;;40.45;15.94;100893.28;5121781;27;19915;-87
2022/05/21 09:46:22;;;;;;;;;;;;;;;39.96;15.62;100889.78;5124211;27;20448;-88
2022/05/21 09:48:50;;;;;;;;;;;;;;;40.60;15.11;100896.50;5111348;27;20345;-88
2022/05/21 09:51:22;;;;;;;;;;;;;;;41.22;14.55;100891.34;5122585;27;20299;-86
2022/05/21 09:53:49;;;;;;;;;;;;;;;41.45;14.74;100892.34;5116718;27;19958;-86
2022/05/21 09:56:18;;;;;;;;;;;;;;;41.02;14.96;100884.75;5123116;27;20303;-87
2022/05/21 09:58:46;;;;;;;;;;;;;;;41.07;14.89;100881.66;5117386;27;19922;-86
2022/05/21 10:01:12;;;;;;;;;;;;;;;41.63;14.64;100880.69;5121379;27;19924;-86
2022/05/21 10:03:49;;;;;;;;;;;;;;;41.13;14.77;100871.78;5119689;27;20010;-89
2022/05/21 10:06:19;;;;;;;;;;;;;;;41.30;14.42;100876.25;5123552;27;19976;-87
2022/05/21 10:11:32;;;;;;;;;;;;;;;41.22;14.22;100872.44;5095204;28;19977;-88
2022/05/21 10:14:08;;;;;;;;;;;;;;;40.17;14.41;100855.81;5118249;27;19928;-88
2022/05/21 10:16:40;;;;;;;;;;;;;;;38.86;15.32;100866.03;5137253;27;19920;-87
2022/05/21 10:19:41;;;;;;;;;;;;;;;38.72;15.34;100866.34;5127675;27;19919;-87
2022/05/21 10:22:21;;;;;;;;;;;;;;;39.22;14.84;100868.09;5110897;28;19912;-87
2022/05/21 10:25:04;;;;;;;;;;;;;;;38.09;15.31;100860.00;5121087;27;20043;-88
2022/05/21 10:27:32;;;;;;;;;;;;;;;38.16;15.80;100861.06;5112105;27;19930;-86
2022/05/21 10:30:11;;;;;;;;;;;;;;;38.84;15.06;100860.78;5118276;27;19990;-87
2022/05/21 10:32:43;;;;;;;;;;;;;;;38.81;14.54;100858.63;5092613;28;20522;-87
2022/05/21 10:35:10;;;;;;;;;;;;;;;39.11;14.90;100852.88;5114517;27;19926;-87
2022/05/21 10:37:56;;;;;;;;;;;;;;;39.13;14.88;100852.53;5134091;27;19915;-88
2022/05/21 10:40:41;;;;;;;;;;;;;;;39.65;14.78;100855.44;5126270;27;19990;-89
2022/05/21 10:43:12;;;;;;;;;;;;;;;39.29;15.15;100847.84;5139378;27;20295;-88
2022/05/21 10:45:49;;;;;;;;;;;;;;;38.60;15.85;100846.66;5123305;27;19923;-87
2022/05/21 10:48:33;;;;;;;;;;;;;;;38.28;15.80;100845.44;5113593;27;19931;-87
2022/05/21 10:51:06;;;;;;;;;;;;;;;37.02;17.44;100831.19;5116252;27;19923;-86
2022/05/21 10:53:38;;;;;;;;;;;;;;;35.28;19.04;100840.38;5099416;27;19996;-89
2022/05/21 10:56:19;;;;;;;;;;;;;;;35.39;19.72;100827.75;5096989;28;19923;-88
2022/05/21 10:58:45;;;;;;;;;;;;;;;35.24;19.63;100828.22;5099958;27;19919;-86
2022/05/21 11:01:22;;;;;;;;;;;;;;;35.26;20.02;100823.94;5113977;28;20395;-87
2022/05/21 11:04:01;;;;;;;;;;;;;;;34.64;20.71;100830.34;5114744;27;19923;-87
2022/05/21 11:06:32;;;;;;;;;;;;;;;33.22;22.24;100829.63;5153294;27;19930;-87
2022/05/21 11:09:02;;;;;;;;;;;;;;;33.25;22.37;100829.03;5112898;28;19989;-87
2022/05/21 11:11:28;;;;;;;;;;;;;;;32.42;23.97;100831.59;5134655;27;20014;-87
2022/05/21 11:13:57;;;;;;;;;;;;;;;31.67;24.95;100827.69;5126020;27;19962;-86
2022/05/21 11:16:41;;;;;;;;;;;;;;;31.56;24.64;100828.94;5121297;28;19920;-88
2022/05/21 11:19:22;;;;;;;;;;;;;;;30.79;25.74;100823.38;5118455;27;19928;-86
2022/05/21 11:21:59;;;;;;;;;;;;;;;30.38;27.05;100824.59;5099144;28;20307;-87
2022/05/21 11:24:34;;;;;;;;;;;;;;;30.14;27.85;100821.69;5108590;27;19967;-88
2022/05/21 11:27:06;;;;;;;;;;;;;;;30.41;27.61;100812.91;5127449;27;19950;-86
2022/05/21 11:29:35;;;;;;;;;;;;;;;30.15;27.50;100814.22;5125941;27;19923;-88
2022/05/21 11:37:34;;;;;;;;;;;;;;;30.17;29.19;100800.88;5111752;28;19973;-86
2022/05/21 11:40:01;;;;;;;;;;;;;;;30.03;29.81;100807.06;5095824;28;19957;-88
2022/05/21 11:42:28;;;;;;;;;;;;;;;30.17;30.05;100806.44;5130975;28;20463;-88
2022/05/21 11:45:11;;;;;;;;;;;;;;;30.66;29.44;100799.94;5118307;28;19919;-86
2022/05/21 11:47:51;;;;;;;;;;;;;;;30.86;29.22;100797.00;5090742;28;19955;-88
2022/05/21 11:50:24;;;;;;;;;;;;;;;30.85;29.38;100798.09;5129685;28;19980;-87
2022/05/21 11:53:15;;;;;;;;;;;;;;;30.70;29.62;100792.69;5123394;28;19968;-87
2022/05/21 11:55:58;;;;;;;;;;;;;;;30.84;29.75;100788.13;5105519;28;19999;-88
2022/05/21 11:58:48;;;;;;;;;;;;;;;30.94;29.51;100778.03;5111667;28;19928;-86
2022/05/21 12:01:33;;;;;;;;;;;;;;;31.06;29.45;100768.16;5130913;27;19927;-88
2022/05/21 12:04:01;;;;;;;;;;;;;;;31.17;29.11;100768.88;5108265;27;19919;-87
2022/05/21 12:06:38;;;;;;;;;;;;;;;30.95;29.09;100771.34;5113585;27;19916;-87
2022/05/21 12:09:23;;;;;;;;;;;;;;;30.21;30.36;100757.63;5146650;27;19916;-87
2022/05/21 12:11:52;;;;;;;;;;;;;;;30.09;30.88;100769.06;5122986;27;20391;-88
2022/05/21 12:14:27;;;;;;;;;;;;;;;30.29;30.07;100759.78;5111918;27;19927;-87
2022/05/21 12:17:01;;;;;;;;;;;;;;;30.35;29.95;100755.03;5122481;27;19919;-87
2022/05/21 12:19:53;;;;;;;;;;;;;;;30.24;29.83;100752.28;5122376;27;19915;-85
2022/05/21 12:22:44;;;;;;;;;;;;;;;30.29;29.34;100745.91;5140996;27;20093;-87
2022/05/21 12:25:30;;;;;;;;;;;;;;;30.19;30.00;100737.66;5131604;27;19980;-87
2022/05/21 12:28:00;;;;;;;;;;;;;;;30.15;29.87;100739.34;5135289;27;19915;-88
2022/05/21 12:30:31;;;;;;;;;;;;;;;28.82;32.00;100747.25;5103554;27;19927;-87
2022/05/21 12:32:59;;;;;;;;;;;;;;;28.58;31.91;100740.66;5135184;27;20383;-87
2022/05/21 12:35:27;;;;;;;;;;;;;;;27.63;33.11;100739.22;5109247;27;19919;-87
2022/05/21 12:38:15;;;;;;;;;;;;;;;27.24;34.04;100731.34;5098689;28;19916;-88
2022/05/21 12:40:43;;;;;;;;;;;;;;;27.31;34.51;100731.09;5118629;27;19920;-87
2022/05/21 12:43:11;;;;;;;;;;;;;;;27.49;34.50;100722.34;5114078;27;19912;-86
2022/05/21 12:45:48;;;;;;;;;;;;;;;27.27;34.32;100724.47;5126451;27;20402;-87
2022/05/21 12:48:31;;;;;;;;;;;;;;;27.06;34.63;100723.53;5117277;27;20022;-88
2022/05/21 12:50:57;;;;;;;;;;;;;;;26.88;35.38;100719.31;5109779;27;20387;-88
2022/05/21 12:53:39;;;;;;;;;;;;;;;26.60;35.80;100707.59;5114625;27;19926;-87
2022/05/21 12:56:29;;;;;;;;;;;;;;;26.47;36.24;100706.06;5098898;28;19924;-87
2022/05/21 12:59:03;;;;;;;;;;;;;;;26.45;36.37;100708.28;5108061;27;19919;-88
2022/05/21 13:01:30;;;;;;;;;;;;;;;26.52;36.14;100708.03;5126462;27;19919;-88
2022/05/21 13:03:56;;;;;;;;;;;;;;;25.88;36.85;100707.00;5129744;27;19920;-88
2022/05/21 13:06:26;;;;;;;;;;;;;;;25.84;37.03;100699.50;5136413;27;20379;-89
2022/05/21 13:08:55;;;;;;;;;;;;;;;25.44;37.51;100692.50;5147140;27;19920;-87
2022/05/21 13:11:27;;;;;;;;;;;;;;;25.27;37.95;100698.09;5144756;27;19967;-87
2022/05/21 13:13:57;;;;;;;;;;;;;;;24.71;39.14;100689.13;5112900;27;19967;-85
2022/05/21 13:16:23;;;;;;;;;;;;;;;24.68;38.94;100698.72;5113592;28;19973;-87
2022/05/21 13:19:07;;;;;;;;;;;;;;;24.72;39.01;100677.03;5129984;27;19973;-87